sensor_id;sensor_type;location;lat;lon;timestamp;pressure;altitude;pressure_sealevel;temperature;humidity
2192;BME280;1102;49.718;11.902;2023-02-10T00:02:04;97956.84;;;-8.01;100.00
2192;BME280;1102;49.718;11.902;2023-02-10T00:04:30;97978.56;;;-7.89;100.00
2192;BME280;1102;49.718;11.902;2023-02-10T00:06:57;97933.16;;;-8.11;100.00
2192;BME280;1102;49.718;11.902;2023-02-10T00:09:24;97964.19;;;-7.98;100.00
2192;BME280;1102;49.718;11.902;2023-02-10T00:11:50;97944.41;;;-8.20;100.00
2192;BME280;1102;49.718;11.902;2023-02-10T00:14:23;97891.44;;;-8.67;100.00
2192;BME280;1102;49.718;11.902;2023-02-10T00:16:51;97940.28;;;-8.29;100.00
2192;BME280;1102;49.718;11.902;2023-02-10T00:19:19;97973.44;;;-8.20;100.00
2192;BME280;1102;49.718;11.902;2023-02-10T00:21:46;97940.00;;;-8.35;100.00
2192;BME280;1102;49.718;11.902;2023-02-10T00:24:16;97972.88;;;-8.07;100.00
2192;BME280;1102;49.718;11.902;2023-02-10T00:26:43;97956.44;;;-8.21;100.00
2192;BME280;1102;49.718;11.902;2023-02-10T00:29:10;97956.72;;;-8.16;100.00
2192;BME280;1102;49.718;11.902;2023-02-10T00:31:38;97943.78;;;-8.22;100.00
2192;BME280;1102;49.718;11.902;2023-02-10T00:34:04;97958.94;;;-8.36;100.00
2192;BME280;1102;49.718;11.902;2023-02-10T00:36:31;97965.44;;;-8.64;100.00
2192;BME280;1102;49.718;11.902;2023-02-10T00:39:00;97960.94;;;-8.62;100.00
2192;BME280;1102;49.718;11.902;2023-02-10T00:41:27;97968.91;;;-8.49;100.00
2192;BME280;1102;49.718;11.902;2023-02-10T00:43:53;97962.41;;;-8.76;100.00
2192;BME280;1102;49.718;11.902;2023-02-10T00:46:21;97836.06;;;-9.64;100.00
2192;BME280;1102;49.718;11.902;2023-02-10T00:48:48;97969.44;;;-8.70;100.00
2192;BME280;1102;49.718;11.902;2023-02-10T00:51:15;97971.69;;;-8.67;100.00
2192;BME280;1102;49.718;11.902;2023-02-10T00:53:43;97967.03;;;-8.71;100.00
2192;BME280;1102;49.718;11.902;2023-02-10T00:56:10;97921.16;;;-9.05;100.00
2192;BME280;1102;49.718;11.902;2023-02-10T00:58:37;97964.63;;;-8.73;100.00
2192;BME280;1102;49.718;11.902;2023-02-10T01:01:04;97983.06;;;-8.85;100.00
2192;BME280;1102;49.718;11.902;2023-02-10T01:03:31;97969.50;;;-9.18;100.00
2192;BME280;1102;49.718;11.902;2023-02-10T01:05:58;97975.59;;;-9.19;100.00
2192;BME280;1102;49.718;11.902;2023-02-10T01:08:24;97959.88;;;-9.25;100.00
2192;BME280;1102;49.718;11.902;2023-02-10T01:11:00;97980.84;;;-8.97;100.00
2192;BME280;1102;49.718;11.902;2023-02-10T01:13:27;97971.88;;;-9.01;100.00
2192;BME280;1102;49.718;11.902;2023-02-10T01:15:54;97985.34;;;-8.90;100.00
2192;BME280;1102;49.718;11.902;2023-02-10T01:18:20;97979.44;;;-9.07;100.00
2192;BME280;1102;49.718;11.902;2023-02-10T01:20:47;97969.19;;;-9.07;100.00
2192;BME280;1102;49.718;11.902;2023-02-10T01:23:14;97929.00;;;-9.31;100.00
2192;BME280;1102;49.718;11.902;2023-02-10T01:25:40;97997.81;;;-8.79;100.00
2192;BME280;1102;49.718;11.902;2023-02-10T01:28:09;97984.06;;;-9.03;100.00
2192;BME280;1102;49.718;11.902;2023-02-10T01:30:36;97966.47;;;-9.06;100.00
2192;BME280;1102;49.718;11.902;2023-02-10T01:33:03;97976.69;;;-8.98;100.00
2192;BME280;1102;49.718;11.902;2023-02-10T01:35:31;98008.22;;;-8.89;100.00
2192;BME280;1102;49.718;11.902;2023-02-10T01:37:57;98011.28;;;-8.93;100.00
2192;BME280;1102;49.718;11.902;2023-02-10T01:40:26;97986.16;;;-9.06;100.00
2192;BME280;1102;49.718;11.902;2023-02-10T01:42:53;98007.13;;;-9.19;100.00
2192;BME280;1102;49.718;11.902;2023-02-10T01:45:32;98012.53;;;-9.22;100.00
2192;BME280;1102;49.718;11.902;2023-02-10T01:48:00;98014.81;;;-9.19;100.00
2192;BME280;1102;49.718;11.902;2023-02-10T01:50:31;98011.09;;;-9.08;100.00
2192;BME280;1102;49.718;11.902;2023-02-10T01:52:58;98018.31;;;-8.96;100.00
2192;BME280;1102;49.718;11.902;2023-02-10T01:55:29;98000.06;;;-9.25;100.00
2192;BME280;1102;49.718;11.902;2023-02-10T01:58:03;98020.38;;;-9.32;100.00
2192;BME280;1102;49.718;11.902;2023-02-10T02:00:31;98012.41;;;-9.20;100.00
2192;BME280;1102;49.718;11.902;2023-02-10T02:02:59;97960.53;;;-9.55;100.00
2192;BME280;1102;49.718;11.902;2023-02-10T02:05:30;97981.50;;;-9.43;100.00
2192;BME280;1102;49.718;11.902;2023-02-10T02:08:16;98016.84;;;-9.23;100.00
2192;BME280;1102;49.718;11.902;2023-02-10T02:13:50;98022.00;;;-9.31;100.00
2192;BME280;1102;49.718;11.902;2023-02-10T02:28:08;98009.31;;;-9.40;100.00
2192;BME280;1102;49.718;11.902;2023-02-10T02:33:43;98022.75;;;-9.38;100.00
2192;BME280;1102;49.718;11.902;2023-02-10T02:36:18;97985.28;;;-9.72;100.00
2192;BME280;1102;49.718;11.902;2023-02-10T02:38:49;98023.41;;;-9.36;100.00
2192;BME280;1102;49.718;11.902;2023-02-10T02:41:23;98021.00;;;-9.46;100.00
2192;BME280;1102;49.718;11.902;2023-02-10T02:43:52;97977.91;;;-9.83;100.00
2192;BME280;1102;49.718;11.902;2023-02-10T02:49:02;98030.44;;;-9.46;100.00
2192;BME280;1102;49.718;11.902;2023-02-10T02:51:49;97998.38;;;-9.75;100.00
2192;BME280;1102;49.718;11.902;2023-02-10T02:54:25;98026.38;;;-9.65;100.00
2192;BME280;1102;49.718;11.902;2023-02-10T02:57:26;98029.59;;;-9.63;100.00
2192;BME280;1102;49.718;11.902;2023-02-10T03:00:08;98001.16;;;-10.02;100.00
2192;BME280;1102;49.718;11.902;2023-02-10T03:02:37;98002.53;;;-9.82;100.00
2192;BME280;1102;49.718;11.902;2023-02-10T03:05:08;98040.16;;;-9.66;100.00
2192;BME280;1102;49.718;11.902;2023-02-10T03:07:36;98025.91;;;-9.69;100.00
2192;BME280;1102;49.718;11.902;2023-02-10T03:10:04;98044.78;;;-9.70;100.00
2192;BME280;1102;49.718;11.902;2023-02-10T03:12:31;98004.53;;;-10.02;100.00
2192;BME280;1102;49.718;11.902;2023-02-10T03:14:57;98004.88;;;-9.89;100.00
2192;BME280;1102;49.718;11.902;2023-02-10T03:17:24;98017.81;;;-9.98;100.00
2192;BME280;1102;49.718;11.902;2023-02-10T03:19:51;98033.69;;;-9.87;100.00
2192;BME280;1102;49.718;11.902;2023-02-10T03:22:17;98033.22;;;-9.82;100.00
2192;BME280;1102;49.718;11.902;2023-02-10T03:24:44;97991.25;;;-10.05;100.00
2192;BME280;1102;49.718;11.902;2023-02-10T03:27:11;98004.69;;;-10.03;100.00
2192;BME280;1102;49.718;11.902;2023-02-10T03:29:38;98036.09;;;-9.85;100.00
2192;BME280;1102;49.718;11.902;2023-02-10T03:32:04;98012.09;;;-9.92;100.00
2192;BME280;1102;49.718;11.902;2023-02-10T03:34:32;98029.22;;;-9.76;100.00
2192;BME280;1102;49.718;11.902;2023-02-10T03:36:59;98026.34;;;-9.81;100.00
2192;BME280;1102;49.718;11.902;2023-02-10T03:39:25;97989.94;;;-10.18;100.00
2192;BME280;1102;49.718;11.902;2023-02-10T03:41:52;98034.03;;;-10.16;100.00
2192;BME280;1102;49.718;11.902;2023-02-10T03:44:20;97992.16;;;-10.57;100.00
2192;BME280;1102;49.718;11.902;2023-02-10T03:46:46;98001.19;;;-10.70;100.00
2192;BME280;1102;49.718;11.902;2023-02-10T03:49:13;97990.53;;;-10.66;100.00
2192;BME280;1102;49.718;11.902;2023-02-10T03:51:40;98049.19;;;-10.30;100.00
2192;BME280;1102;49.718;11.902;2023-02-10T03:54:07;98052.94;;;-10.43;100.00
2192;BME280;1102;49.718;11.902;2023-02-10T03:56:33;98021.19;;;-10.66;100.00
2192;BME280;1102;49.718;11.902;2023-02-10T03:59:03;98054.69;;;-10.43;100.00
2192;BME280;1102;49.718;11.902;2023-02-10T04:01:30;98056.19;;;-10.32;100.00
2192;BME280;1102;49.718;11.902;2023-02-10T04:03:57;98003.56;;;-10.51;100.00
2192;BME280;1102;49.718;11.902;2023-02-10T04:06:24;98017.97;;;-10.42;100.00
2192;BME280;1102;49.718;11.902;2023-02-10T04:08:51;98052.09;;;-10.25;100.00
2192;BME280;1102;49.718;11.902;2023-02-10T04:11:17;98029.09;;;-10.25;100.00
2192;BME280;1102;49.718;11.902;2023-02-10T04:13:45;98057.72;;;-10.14;100.00
2192;BME280;1102;49.718;11.902;2023-02-10T04:16:14;98067.44;;;-10.17;100.00
2192;BME280;1102;49.718;11.902;2023-02-10T04:18:41;98058.72;;;-10.40;100.00
2192;BME280;1102;49.718;11.902;2023-02-10T04:21:10;98062.25;;;-10.33;100.00
2192;BME280;1102;49.718;11.902;2023-02-10T04:23:37;98028.97;;;-10.50;100.00
2192;BME280;1102;49.718;11.902;2023-02-10T04:26:04;98071.09;;;-10.28;100.00
2192;BME280;1102;49.718;11.902;2023-02-10T04:28:31;98055.72;;;-10.36;100.00
2192;BME280;1102;49.718;11.902;2023-02-10T04:30:59;98070.16;;;-10.27;100.00
2192;BME280;1102;49.718;11.902;2023-02-10T04:33:27;98051.72;;;-10.30;100.00
2192;BME280;1102;49.718;11.902;2023-02-10T04:35:55;98049.38;;;-10.24;100.00
2192;BME280;1102;49.718;11.902;2023-02-10T04:38:22;98065.69;;;-10.17;100.00
2192;BME280;1102;49.718;11.902;2023-02-10T04:40:48;98043.88;;;-10.37;100.00
2192;BME280;1102;49.718;11.902;2023-02-10T04:43:15;98057.06;;;-10.24;100.00
2192;BME280;1102;49.718;11.902;2023-02-10T04:45:42;98076.28;;;-10.11;100.00
2192;BME280;1102;49.718;11.902;2023-02-10T04:48:09;98052.94;;;-10.43;100.00
2192;BME280;1102;49.718;11.902;2023-02-10T04:50:36;98055.59;;;-10.78;100.00
2192;BME280;1102;49.718;11.902;2023-02-10T04:53:04;98046.22;;;-10.69;100.00
2192;BME280;1102;49.718;11.902;2023-02-10T04:55:30;98042.88;;;-10.70;100.00
2192;BME280;1102;49.718;11.902;2023-02-10T04:57:57;98057.31;;;-10.61;100.00
2192;BME280;1102;49.718;11.902;2023-02-10T05:00:24;98042.44;;;-10.83;100.00
2192;BME280;1102;49.718;11.902;2023-02-10T05:02:51;98050.13;;;-10.83;100.00
2192;BME280;1102;49.718;11.902;2023-02-10T05:05:18;98095.09;;;-10.47;100.00
2192;BME280;1102;49.718;11.902;2023-02-10T05:07:45;98097.72;;;-10.56;100.00
2192;BME280;1102;49.718;11.902;2023-02-10T05:10:11;98086.44;;;-10.54;100.00
2192;BME280;1102;49.718;11.902;2023-02-10T05:12:38;98109.47;;;-10.46;100.00
2192;BME280;1102;49.718;11.902;2023-02-10T05:15:05;98079.72;;;-10.55;100.00
2192;BME280;1102;49.718;11.902;2023-02-10T05:17:34;98090.03;;;-10.64;100.00
2192;BME280;1102;49.718;11.902;2023-02-10T05:20:02;98094.81;;;-10.61;100.00
2192;BME280;1102;49.718;11.902;2023-02-10T05:22:29;98077.06;;;-10.89;100.00
2192;BME280;1102;49.718;11.902;2023-02-10T05:24:57;98110.03;;;-10.95;100.00
2192;BME280;1102;49.718;11.902;2023-02-10T05:27:25;98082.69;;;-11.21;100.00
2192;BME280;1102;49.718;11.902;2023-02-10T05:29:51;98114.41;;;-10.88;100.00
2192;BME280;1102;49.718;11.902;2023-02-10T05:32:18;98084.13;;;-11.00;100.00
2192;BME280;1102;49.718;11.902;2023-02-10T05:34:45;98114.19;;;-10.77;100.00
2192;BME280;1102;49.718;11.902;2023-02-10T05:37:12;98120.59;;;-10.73;100.00
2192;BME280;1102;49.718;11.902;2023-02-10T05:39:38;98110.19;;;-10.79;100.00
2192;BME280;1102;49.718;11.902;2023-02-10T05:42:06;98121.78;;;-10.67;100.00
2192;BME280;1102;49.718;11.902;2023-02-10T05:44:33;98127.69;;;-10.66;100.00
2192;BME280;1102;49.718;11.902;2023-02-10T05:47:00;98108.16;;;-10.93;100.00
2192;BME280;1102;49.718;11.902;2023-02-10T05:49:26;98126.97;;;-10.94;100.00
2192;BME280;1102;49.718;11.902;2023-02-10T05:51:53;98133.69;;;-10.76;100.00
2192;BME280;1102;49.718;11.902;2023-02-10T05:54:20;98126.91;;;-10.67;100.00
2192;BME280;1102;49.718;11.902;2023-02-10T05:56:46;98117.31;;;-10.83;100.00
2192;BME280;1102;49.718;11.902;2023-02-10T05:59:16;98130.69;;;-10.89;100.00
2192;BME280;1102;49.718;11.902;2023-02-10T06:01:43;98136.59;;;-10.70;100.00
2192;BME280;1102;49.718;11.902;2023-02-10T06:04:09;98058.97;;;-11.13;100.00
2192;BME280;1102;49.718;11.902;2023-02-10T06:06:36;98133.31;;;-10.81;100.00
2192;BME280;1102;49.718;11.902;2023-02-10T06:09:03;98144.03;;;-10.77;100.00
2192;BME280;1102;49.718;11.902;2023-02-10T06:11:30;98141.34;;;-10.76;100.00
2192;BME280;1102;49.718;11.902;2023-02-10T06:13:57;98139.59;;;-10.31;100.00
2192;BME280;1102;49.718;11.902;2023-02-10T06:16:24;98103.22;;;-10.51;100.00
2192;BME280;1102;49.718;11.902;2023-02-10T06:18:51;98108.66;;;-11.08;100.00
2192;BME280;1102;49.718;11.902;2023-02-10T06:21:17;98124.34;;;-10.85;100.00
2192;BME280;1102;49.718;11.902;2023-02-10T06:23:45;98152.72;;;-10.70;100.00
2192;BME280;1102;49.718;11.902;2023-02-10T06:26:12;98133.03;;;-10.78;100.00
2192;BME280;1102;49.718;11.902;2023-02-10T06:28:38;98127.09;;;-10.96;100.00
2192;BME280;1102;49.718;11.902;2023-02-10T06:31:05;98143.16;;;-10.86;100.00
2192;BME280;1102;49.718;11.902;2023-02-10T06:33:34;98177.31;;;-10.69;100.00
2192;BME280;1102;49.718;11.902;2023-02-10T06:36:03;98133.03;;;-11.41;100.00
2192;BME280;1102;49.718;11.902;2023-02-10T06:38:35;98184.84;;;-11.30;100.00
2192;BME280;1102;49.718;11.902;2023-02-10T06:41:03;98188.72;;;-11.09;100.00
2192;BME280;1102;49.718;11.902;2023-02-10T06:43:30;98192.72;;;-11.24;100.00
2192;BME280;1102;49.718;11.902;2023-02-10T06:45:56;98158.31;;;-11.20;100.00
2192;BME280;1102;49.718;11.902;2023-02-10T06:48:23;98194.59;;;-10.98;100.00
2192;BME280;1102;49.718;11.902;2023-02-10T06:50:50;98203.34;;;-10.83;100.00
2192;BME280;1102;49.718;11.902;2023-02-10T06:53:16;98168.41;;;-10.83;100.00
2192;BME280;1102;49.718;11.902;2023-02-10T06:55:43;98204.25;;;-10.57;100.00
2192;BME280;1102;49.718;11.902;2023-02-10T06:58:10;98212.66;;;-10.47;100.00
2192;BME280;1102;49.718;11.902;2023-02-10T07:00:37;98174.84;;;-10.61;100.00
2192;BME280;1102;49.718;11.902;2023-02-10T07:03:03;98168.84;;;-10.52;100.00
2192;BME280;1102;49.718;11.902;2023-02-10T07:05:30;98196.22;;;-10.26;100.00
2192;BME280;1102;49.718;11.902;2023-02-10T07:07:58;98185.03;;;-10.17;100.00
2192;BME280;1102;49.718;11.902;2023-02-10T07:10:29;98207.31;;;-10.09;100.00
2192;BME280;1102;49.718;11.902;2023-02-10T07:12:57;98179.78;;;-10.24;100.00
2192;BME280;1102;49.718;11.902;2023-02-10T07:15:24;98202.66;;;-9.88;100.00
2192;BME280;1102;49.718;11.902;2023-02-10T07:17:51;98181.38;;;-9.97;100.00
2192;BME280;1102;49.718;11.902;2023-02-10T07:20:19;98167.84;;;-10.07;100.00
2192;BME280;1102;49.718;11.902;2023-02-10T07:22:45;98202.31;;;-9.93;100.00
2192;BME280;1102;49.718;11.902;2023-02-10T07:25:14;98176.59;;;-9.92;100.00
2192;BME280;1102;49.718;11.902;2023-02-10T07:27:41;98197.81;;;-9.73;100.00
2192;BME280;1102;49.718;11.902;2023-02-10T07:30:08;98185.81;;;-9.99;100.00
2192;BME280;1102;49.718;11.902;2023-02-10T07:32:34;98182.63;;;-10.01;100.00
2192;BME280;1102;49.718;11.902;2023-02-10T07:35:01;98118.50;;;-10.33;100.00
2192;BME280;1102;49.718;11.902;2023-02-10T07:37:28;98166.00;;;-9.97;100.00
2192;BME280;1102;49.718;11.902;2023-02-10T07:39:55;98156.91;;;-9.99;100.00
2192;BME280;1102;49.718;11.902;2023-02-10T07:42:22;98170.19;;;-9.96;100.00
2192;BME280;1102;49.718;11.902;2023-02-10T07:45:03;98192.28;;;-9.61;100.00
2192;BME280;1102;49.718;11.902;2023-02-10T07:47:30;98191.50;;;-9.53;100.00
2192;BME280;1102;49.718;11.902;2023-02-10T07:49:56;98185.09;;;-9.57;100.00
2192;BME280;1102;49.718;11.902;2023-02-10T07:52:23;98204.72;;;-9.66;100.00
2192;BME280;1102;49.718;11.902;2023-02-10T07:54:50;98183.94;;;-9.89;100.00
2192;BME280;1102;49.718;11.902;2023-02-10T07:57:17;98213.41;;;-9.59;100.00
2192;BME280;1102;49.718;11.902;2023-02-10T07:59:44;98213.75;;;-9.54;100.00
2192;BME280;1102;49.718;11.902;2023-02-10T08:02:10;98177.91;;;-9.88;100.00
2192;BME280;1102;49.718;11.902;2023-02-10T08:04:37;98182.06;;;-9.61;100.00
2192;BME280;1102;49.718;11.902;2023-02-10T08:07:04;98215.31;;;-9.27;100.00
2192;BME280;1102;49.718;11.902;2023-02-10T08:09:31;98193.59;;;-9.14;100.00
2192;BME280;1102;49.718;11.902;2023-02-10T08:11:57;98219.78;;;-8.86;100.00
2192;BME280;1102;49.718;11.902;2023-02-10T08:14:24;98188.66;;;-9.00;100.00
2192;BME280;1102;49.718;11.902;2023-02-10T08:16:51;98225.28;;;-8.65;100.00
2192;BME280;1102;49.718;11.902;2023-02-10T08:19:17;98206.03;;;-8.77;100.00
2192;BME280;1102;49.718;11.902;2023-02-10T08:21:44;98218.25;;;-8.47;100.00
2192;BME280;1102;49.718;11.902;2023-02-10T08:24:11;98190.53;;;-8.51;100.00
2192;BME280;1102;49.718;11.902;2023-02-10T08:26:37;98222.09;;;-8.10;100.00
2192;BME280;1102;49.718;11.902;2023-02-10T08:29:04;98232.81;;;-7.82;100.00
2192;BME280;1102;49.718;11.902;2023-02-10T08:31:31;98190.78;;;-7.89;100.00
2192;BME280;1102;49.718;11.902;2023-02-10T08:33:58;98224.22;;;-7.42;100.00
2192;BME280;1102;49.718;11.902;2023-02-10T08:36:24;98186.06;;;-7.53;100.00
2192;BME280;1102;49.718;11.902;2023-02-10T08:38:51;98209.03;;;-7.12;100.00
2192;BME280;1102;49.718;11.902;2023-02-10T08:41:18;98230.56;;;-6.82;100.00
2192;BME280;1102;49.718;11.902;2023-02-10T08:43:45;98251.38;;;-6.61;100.00
2192;BME280;1102;49.718;11.902;2023-02-10T08:46:12;98242.22;;;-6.64;100.00
2192;BME280;1102;49.718;11.902;2023-02-10T08:48:39;98230.19;;;-6.71;100.00
2192;BME280;1102;49.718;11.902;2023-02-10T08:51:07;98212.75;;;-6.84;100.00
2192;BME280;1102;49.718;11.902;2023-02-10T08:53:34;98236.41;;;-6.89;100.00
2192;BME280;1102;49.718;11.902;2023-02-10T08:56:05;98214.50;;;-7.07;100.00
2192;BME280;1102;49.718;11.902;2023-02-10T08:58:32;98233.41;;;-6.69;100.00
2192;BME280;1102;49.718;11.902;2023-02-10T09:00:58;98235.31;;;-6.63;100.00
2192;BME280;1102;49.718;11.902;2023-02-10T09:03:25;98236.66;;;-6.75;100.00
2192;BME280;1102;49.718;11.902;2023-02-10T09:05:53;98264.22;;;-6.61;100.00
2192;BME280;1102;49.718;11.902;2023-02-10T09:08:20;98236.63;;;-6.67;100.00
2192;BME280;1102;49.718;11.902;2023-02-10T09:10:47;98262.84;;;-6.41;100.00
2192;BME280;1102;49.718;11.902;2023-02-10T09:13:14;98253.22;;;-6.47;100.00
2192;BME280;1102;49.718;11.902;2023-02-10T09:15:41;98259.91;;;-6.38;100.00
2192;BME280;1102;49.718;11.902;2023-02-10T09:18:09;98264.94;;;-6.44;100.00
2192;BME280;1102;49.718;11.902;2023-02-10T09:20:37;98258.25;;;-6.31;100.00
2192;BME280;1102;49.718;11.902;2023-02-10T09:23:04;98248.19;;;-6.40;100.00
2192;BME280;1102;49.718;11.902;2023-02-10T09:25:31;98248.88;;;-6.23;100.00
2192;BME280;1102;49.718;11.902;2023-02-10T09:27:57;98259.22;;;-6.09;100.00
2192;BME280;1102;49.718;11.902;2023-02-10T09:30:25;98254.84;;;-6.00;100.00
2192;BME280;1102;49.718;11.902;2023-02-10T09:32:52;98260.09;;;-5.93;100.00
2192;BME280;1102;49.718;11.902;2023-02-10T09:35:19;98232.25;;;-6.13;100.00
2192;BME280;1102;49.718;11.902;2023-02-10T09:37:46;98228.53;;;-6.10;100.00
2192;BME280;1102;49.718;11.902;2023-02-10T09:40:21;98229.31;;;-6.10;100.00
2192;BME280;1102;49.718;11.902;2023-02-10T09:43:02;98261.06;;;-5.80;100.00
2192;BME280;1102;49.718;11.902;2023-02-10T09:45:36;98267.41;;;-5.68;100.00
2192;BME280;1102;49.718;11.902;2023-02-10T09:50:54;98250.88;;;-5.73;100.00
2192;BME280;1102;49.718;11.902;2023-02-10T09:53:27;98273.66;;;-5.47;100.00
2192;BME280;1102;49.718;11.902;2023-02-10T09:55:58;98262.81;;;-5.43;100.00
2192;BME280;1102;49.718;11.902;2023-02-10T09:58:42;98280.25;;;-5.45;100.00
2192;BME280;1102;49.718;11.902;2023-02-10T10:01:26;98279.53;;;-5.24;100.00
2192;BME280;1102;49.718;11.902;2023-02-10T10:04:00;98285.78;;;-5.03;100.00
2192;BME280;1102;49.718;11.902;2023-02-10T10:06:34;98271.28;;;-5.19;100.00
2192;BME280;1102;49.718;11.902;2023-02-10T10:11:51;98293.59;;;-4.97;100.00
2192;BME280;1102;49.718;11.902;2023-02-10T10:14:23;98289.94;;;-5.02;100.00
2192;BME280;1102;49.718;11.902;2023-02-10T10:33:53;98295.50;;;-4.19;100.00
2192;BME280;1102;49.718;11.902;2023-02-10T10:36:31;98273.75;;;-4.09;100.00
2192;BME280;1102;49.718;11.902;2023-02-10T10:42:00;98275.84;;;-3.98;100.00
2192;BME280;1102;49.718;11.902;2023-02-10T10:44:29;98251.41;;;-4.17;100.00
2192;BME280;1102;49.718;11.902;2023-02-10T10:49:36;98284.13;;;-3.81;100.00
2192;BME280;1102;49.718;11.902;2023-02-10T10:54:48;98250.22;;;-4.00;100.00
2192;BME280;1102;49.718;11.902;2023-02-10T10:57:16;98236.50;;;-4.00;100.00
2192;BME280;1102;49.718;11.902;2023-02-10T10:59:50;98262.91;;;-3.77;100.00
2192;BME280;1102;49.718;11.902;2023-02-10T11:02:19;98275.03;;;-3.49;100.00
2192;BME280;1102;49.718;11.902;2023-02-10T11:05:00;98270.53;;;-3.41;100.00
2192;BME280;1102;49.718;11.902;2023-02-10T11:07:28;98247.47;;;-3.42;100.00
2192;BME280;1102;49.718;11.902;2023-02-10T11:09:58;98250.03;;;-3.42;100.00
2192;BME280;1102;49.718;11.902;2023-02-10T11:12:37;98274.84;;;-3.20;100.00
2192;BME280;1102;49.718;11.902;2023-02-10T11:17:53;98274.50;;;-3.10;100.00
2192;BME280;1102;49.718;11.902;2023-02-10T11:23:03;98260.16;;;-3.13;100.00
2192;BME280;1102;49.718;11.902;2023-02-10T11:25:36;98264.94;;;-3.16;100.00
2192;BME280;1102;49.718;11.902;2023-02-10T11:28:05;98248.75;;;-3.25;100.00
2192;BME280;1102;49.718;11.902;2023-02-10T11:30:37;98266.13;;;-3.12;100.00
2192;BME280;1102;49.718;11.902;2023-02-10T11:33:15;98239.91;;;-3.37;100.00
2192;BME280;1102;49.718;11.902;2023-02-10T11:36:10;98263.59;;;-3.06;100.00
2192;BME280;1102;49.718;11.902;2023-02-10T11:38:39;98261.69;;;-2.90;100.00
2192;BME280;1102;49.718;11.902;2023-02-10T11:41:08;98261.81;;;-2.57;100.00
2192;BME280;1102;49.718;11.902;2023-02-10T11:43:43;98267.22;;;-2.52;100.00
2192;BME280;1102;49.718;11.902;2023-02-10T11:46:28;98262.63;;;-2.50;100.00
2192;BME280;1102;49.718;11.902;2023-02-10T11:49:00;98225.91;;;-2.74;100.00
2192;BME280;1102;49.718;11.902;2023-02-10T11:51:29;98234.50;;;-2.60;100.00
2192;BME280;1102;49.718;11.902;2023-02-10T11:53:56;98260.25;;;-2.45;100.00
2192;BME280;1102;49.718;11.902;2023-02-10T11:56:40;98249.50;;;-2.49;100.00
2192;BME280;1102;49.718;11.902;2023-02-10T12:03:12;98253.47;;;-2.46;100.00
2192;BME280;1102;49.718;11.902;2023-02-10T12:13:51;98244.19;;;-2.01;100.00
2192;BME280;1102;49.718;11.902;2023-02-10T12:19:14;98246.41;;;-1.98;100.00
2192;BME280;1102;49.718;11.902;2023-02-10T12:22:02;98211.69;;;-2.17;100.00
2192;BME280;1102;49.718;11.902;2023-02-10T12:29:40;98233.66;;;-1.73;100.00
2192;BME280;1102;49.718;11.902;2023-02-10T12:35:03;98236.63;;;-1.83;100.00
2192;BME280;1102;49.718;11.902;2023-02-10T12:37:46;98222.06;;;-2.03;100.00
2192;BME280;1102;49.718;11.902;2023-02-10T12:43:15;98225.66;;;-1.91;100.00
2192;BME280;1102;49.718;11.902;2023-02-10T12:54:00;98218.25;;;-1.48;100.00
2192;BME280;1102;49.718;11.902;2023-02-10T12:56:34;98207.06;;;-1.49;100.00
2192;BME280;1102;49.718;11.902;2023-02-10T13:01:59;98187.19;;;-1.88;100.00
2192;BME280;1102;49.718;11.902;2023-02-10T13:04:36;98196.16;;;-1.70;100.00
2192;BME280;1102;49.718;11.902;2023-02-10T13:09:54;98191.53;;;-1.62;100.00
2192;BME280;1102;49.718;11.902;2023-02-10T13:12:27;98205.13;;;-1.60;100.00
2192;BME280;1102;49.718;11.902;2023-02-10T13:17:49;98200.09;;;-1.48;100.00
2192;BME280;1102;49.718;11.902;2023-02-10T13:23:01;98202.28;;;-1.32;100.00
2192;BME280;1102;49.718;11.902;2023-02-10T13:34:26;98199.06;;;-1.34;100.00
2192;BME280;1102;49.718;11.902;2023-02-10T13:39:26;98207.06;;;-1.35;100.00
2192;BME280;1102;49.718;11.902;2023-02-10T13:47:39;98194.13;;;-1.42;100.00
2192;BME280;1102;49.718;11.902;2023-02-10T13:50:19;98206.25;;;-1.36;100.00
2192;BME280;1102;49.718;11.902;2023-02-10T13:58:59;98203.47;;;-1.28;100.00
2192;BME280;1102;49.718;11.902;2023-02-10T14:04:05;98207.66;;;-1.27;100.00
2192;BME280;1102;49.718;11.902;2023-02-10T14:06:38;98189.94;;;-1.43;100.00
2192;BME280;1102;49.718;11.902;2023-02-10T14:09:20;98211.41;;;-1.23;100.00
2192;BME280;1102;49.718;11.902;2023-02-10T14:11:48;98195.50;;;-1.33;100.00
2192;BME280;1102;49.718;11.902;2023-02-10T14:14:33;98193.50;;;-1.37;100.00
2192;BME280;1102;49.718;11.902;2023-02-10T14:19:33;98190.06;;;-1.25;100.00
2192;BME280;1102;49.718;11.902;2023-02-10T14:22:02;98179.09;;;-1.20;100.00
2192;BME280;1102;49.718;11.902;2023-02-10T14:24:32;98196.25;;;-1.19;100.00
2192;BME280;1102;49.718;11.902;2023-02-10T14:27:17;98191.06;;;-1.19;100.00
2192;BME280;1102;49.718;11.902;2023-02-10T14:30:11;98195.28;;;-1.38;100.00
2192;BME280;1102;49.718;11.902;2023-02-10T14:32:43;98196.69;;;-1.35;100.00
2192;BME280;1102;49.718;11.902;2023-02-10T14:35:23;98198.88;;;-1.39;100.00
2192;BME280;1102;49.718;11.902;2023-02-10T14:37:58;98203.88;;;-1.31;100.00
2192;BME280;1102;49.718;11.902;2023-02-10T14:40:27;98199.47;;;-1.30;100.00
2192;BME280;1102;49.718;11.902;2023-02-10T14:42:54;98176.56;;;-1.46;100.00
2192;BME280;1102;49.718;11.902;2023-02-10T14:45:23;98203.03;;;-1.25;100.00
2192;BME280;1102;49.718;11.902;2023-02-10T14:47:52;98199.66;;;-1.25;100.00
2192;BME280;1102;49.718;11.902;2023-02-10T14:50:26;98200.25;;;-1.16;100.00
2192;BME280;1102;49.718;11.902;2023-02-10T14:52:53;98178.94;;;-1.32;100.00
2192;BME280;1102;49.718;11.902;2023-02-10T14:58:03;98195.91;;;-0.78;100.00
2192;BME280;1102;49.718;11.902;2023-02-10T15:00:32;98169.09;;;-0.72;100.00
2192;BME280;1102;49.718;11.902;2023-02-10T15:03:00;98178.25;;;-0.63;100.00
2192;BME280;1102;49.718;11.902;2023-02-10T15:05:37;98177.00;;;-0.53;100.00
2192;BME280;1102;49.718;11.902;2023-02-10T15:08:08;98200.28;;;-0.40;100.00
2192;BME280;1102;49.718;11.902;2023-02-10T15:10:41;98158.06;;;-0.67;100.00
2192;BME280;1102;49.718;11.902;2023-02-10T15:13:13;98149.31;;;-0.66;100.00
2192;BME280;1102;49.718;11.902;2023-02-10T15:15:42;98176.38;;;-0.49;100.00
2192;BME280;1102;49.718;11.902;2023-02-10T15:18:18;98193.31;;;-0.40;100.00
2192;BME280;1102;49.718;11.902;2023-02-10T15:20:55;98197.66;;;-0.40;100.00
2192;BME280;1102;49.718;11.902;2023-02-10T15:23:22;98193.09;;;-0.38;100.00